Dubuque, IA (52001)

10:04 AM CDT on July 29, 2016 (GMT -0500)
Eagle Valley | | Change Station

Elev 837 ft 42.54 °N, 90.66 °W | Updated 4 minutes ago

Overcast
Overcast
67.5 °F
Feels Like 67.5 °F
N
0.0
Wind Variable Wind from SW
Gusts 4.0 mph

Today
High -- | Low -- °F
--% Chance of Precip.
Yesterday
High -- | Low -- °F
Precip. -- in
Pressure 29.97 in
Visibility 10.0 miles
Clouds Overcast 800 ft
Dew Point 65 °F
Humidity 92%
Rainfall 0.15 in
Snow Depth Not available.
5:52 AM 8:25 PM
Waning Crescent, 21% visible
METAR KDBQ 291453Z 02007KT 10SM OVC008 20/18 A2998 RMK AO2 LTG DSNT NW SLP148 T02000178 50011
Pressure 29.97 in
Visibility 10.0 miles
Clouds Overcast 800 ft
Dew Point 65 °F
Humidity 92%
Rainfall 0.15 in
Snow Depth Not available.
5:52 AM 8:25 PM
Waning Crescent, 21% visible
METAR KDBQ 291453Z 02007KT 10SM OVC008 20/18 A2998 RMK AO2 LTG DSNT NW SLP148 T02000178 50011

10-Day Weather Forecast

Almanac

Astronomy

Jul. 29, 2016 Rise Set
Actual Time
Civil Twilight
Nautical Twilight
Astronomical Twilight
Moon
Length of Visible Light
Length of Day
Tomorrow will be .
, % of the Moon is Illuminated

Today's Extremes

State Highs State Lows

Community

WunderPhotos

Upload Photos

1,928,345 photos uploaded!

WunderBlog® & News

Nearby

Air Quality

  Air Quality AQ Index Pollutant
Not available.

Snow Depth

Station Depth Elevation

Earthquake Activity

City Distance Mag. Time & Date
Minimum magnitude displayed is 2.5.

Coastal Water Temperatures

Place Temperature

Stations

Nearby Weather Stations

Station Location Temp. Windchill Dew Point Humidity Wind Precip. Elev Updated Type
                   

Watches & Warnings

There are currently no watches in effect.